Flight Track Log - Related Links

Times and Time Zones

All times are in EDT time to prevent confusion due to time zone crossing. See the JIA2419 flight status page for this flight to view local times or setup timezone preferences in your user account.

Time Position Orientation Groundspeed Altitude Reporting Facility
EDT Latitude Longitude Course Direction KTS MPH feet Rate Location/Type
Tue 06:44:15 AM 41.0514 -73.7345 302° West  Level FlightAware Approximate
Tue 06:45:15 AM 40.9937 -73.8344 35° Northeast  Level FlightAware Approximate
Tue 06:46:24 AM 41.0667 -73.7667 270° West 192 221 4,200  Level New York TRACON
Tue 06:47:24 AM 41.0667 -73.8333 270° West 203 234 6,900 1,400 Climbing New York TRACON
Tue 06:48:24 AM 41.0667 -73.9167 225° Southwest 241 277 7,000 50 Climbing New York TRACON
Tue 06:49:24 AM 41.0167 -73.9833 237° Southwest 243 280 7,000 200 Level New York TRACON
Tue 06:50:24 AM 40.9833 -74.0500 237° Southwest 239 275 7,400 1,526 Climbing New York TRACON
Tue 06:51:18 AM 40.9500 -74.1167 225° Southwest 228 262 9,900 2,579 Climbing New York TRACON
Tue 06:52:18 AM 40.9000 -74.1833 232° Southwest 252 290 12,300 1,885 Climbing New York TRACON
Tue 06:54:29 AM 40.7967 -74.3564 223° Southwest 286 329 15,900 1,461 Climbing New York Center
Tue 06:55:31 AM 40.7406 -74.4247 217° Southwest 301 346 17,000 1,462 Climbing New York Center
Tue 06:56:28 AM 40.6589 -74.5050 223° Southwest 328 377 18,800 1,831 Climbing New York Center
Tue 06:57:29 AM 40.5894 -74.5889 224° Southwest 335 386 20,600 1,636 Climbing New York Center
Tue 06:58:29 AM 40.5219 -74.6753 227° Southwest 335 386 22,100 1,488 Climbing New York Center
Tue 06:59:30 AM 40.4564 -74.7669 229° Southwest 340 391 23,600 1,488 Climbing New York Center
Tue 07:00:30 AM 40.3950 -74.8586 235° Southwest 347 399 25,100 1,587 Climbing New York Center
Tue 07:01:31 AM 40.3369 -74.9669 237° Southwest 357 411 26,800 1,525 Climbing New York Center
Tue 07:02:28 AM 40.2853 -75.0725 236° Southwest 350 403 28,100 1,128 Climbing New York Center
Tue 07:03:28 AM 40.2314 -75.1753 238° Southwest 350 403 29,000 793 Climbing New York Center
Tue 07:04:29 AM 40.1817 -75.2808 236° Southwest 350 403 29,700 645 Climbing New York Center
Tue 07:05:29 AM 40.1253 -75.3883 227° Southwest 356 410 30,300 595 Climbing New York Center
Tue 07:06:30 AM 40.0547 -75.4869 227° Southwest 369 425 30,900 605 Climbing New York Center
Tue 07:07:28 AM 39.9839 -75.5850 227° Southwest 374 430 31,500 605 Climbing New York Center
Tue 07:08:29 AM 39.9133 -75.6831 230° Southwest 374 430 32,100 541 Climbing New York Center
Tue 07:09:30 AM 39.8464 -75.7864 230° Southwest 379 436 32,600 555 Climbing New York Center
Tue 07:10:28 AM 39.7769 -75.8950 231° Southwest 384 442 33,200 550 Climbing New York Center
Tue 07:11:30 AM 39.7097 -76.0033 231° Southwest 391 450 33,700 345 Climbing New York Center
Tue 07:12:47 AM 39.6206 -76.1439 232° Southwest 381 438 34,000 130 Climbing Washington Center
Tue 07:13:48 AM 39.5533 -76.2536 229° Southwest 387 445 34,000  Level Washington Center
Tue 07:14:48 AM 39.4778 -76.3658 232° Southwest 398 458 34,000  Level Washington Center
Tue 07:15:49 AM 39.4061 -76.4833 230° Southwest 411 473 34,000  Level Washington Center
Tue 07:16:47 AM 39.3303 -76.6003 230° Southwest 422 486 34,000  Level Washington Center
Tue 07:17:47 AM 39.2561 -76.7147 231° Southwest 427 491 34,000  Level Washington Center
Tue 07:18:47 AM 39.1822 -76.8314 230° Southwest 427 491 34,000  Level Washington Center
Tue 07:19:46 AM 39.1058 -76.9478 228° Southwest 427 491 34,000  Level Washington Center
Tue 07:20:47 AM 39.0294 -77.0558 221° Southwest 427 491 34,000  Level Washington Center
Tue 07:21:48 AM 38.9408 -77.1556 220° Southwest 421 484 34,000  Level Washington Center
Tue 07:22:49 AM 38.8539 -77.2497 221° Southwest 416 479 34,000  Level Washington Center
Tue 07:23:49 AM 38.7672 -77.3464 219° Southwest 416 479 34,000  Level Washington Center
Tue 07:24:47 AM 38.6783 -77.4400 220° Southwest 416 479 34,000  Level Washington Center
Tue 07:25:48 AM 38.5914 -77.5333 221° Southwest 416 479 34,000  Level Washington Center
Tue 07:26:49 AM 38.5042 -77.6292 220° Southwest 410 472 34,000  Level Washington Center
Tue 07:27:47 AM 38.4150 -77.7247 219° Southwest 416 479 34,000  Level Washington Center
Tue 07:28:49 AM 38.3258 -77.8175 221° Southwest 416 479 34,000  Level Washington Center
Tue 07:29:47 AM 38.2383 -77.9128 220° Southwest 416 479 34,000  Level Washington Center
Tue 07:30:48 AM 38.1489 -78.0078 220° Southwest 416 479 34,000  Level Washington Center
Tue 07:31:49 AM 38.0594 -78.1025 227° Southwest 411 473 34,000  Level Washington Center
Tue 07:32:47 AM 37.9908 -78.1950 229° Southwest 411 473 34,000  Level Washington Center
Tue 07:33:47 AM 37.9131 -78.3081 228° Southwest 418 481 34,000  Level Washington Center
Tue 07:34:49 AM 37.8269 -78.4286 228° Southwest 429 494 34,000  Level Washington Center
Tue 07:35:47 AM 37.7492 -78.5386 229° Southwest 429 494 34,000  Level Washington Center
Tue 07:36:47 AM 37.6733 -78.6486 228° Southwest 429 494 34,000  Level Washington Center
Tue 07:37:48 AM 37.5933 -78.7606 229° Southwest 429 494 34,000  Level Washington Center
Tue 07:38:48 AM 37.5172 -78.8725 226° Southwest 429 494 34,000  Level Washington Center
Tue 07:39:48 AM 37.4458 -78.9664 229° Southwest 429 494 34,000  Level Washington Center
Tue 07:40:49 AM 37.3675 -79.0778 228° Southwest 429 494 34,000  Level Washington Center
Tue 07:41:49 AM 37.2872 -79.1892 219° Southwest 429 494 34,000 -308 Level Washington Center
Tue 07:42:46 AM 37.1944 -79.2839 214° Southwest 429 494 33,400 -661 Descending Washington Center
Tue 07:43:47 AM 37.0939 -79.3700 213° Southwest 435 501 32,700 -634 Descending Washington Center
Tue 07:44:49 AM 36.9931 -79.4508 214° Southwest 441 507 32,100 -836 Descending Washington Center
Tue 07:45:49 AM 36.8839 -79.5417 214° Southwest 435 501 31,000 -1,068 Descending Washington Center
Tue 07:46:47 AM 36.7914 -79.6197 213° Southwest 428 493 30,000 -1,119 Descending Washington Center
Tue 07:47:47 AM 36.6992 -79.6953 213° Southwest 415 478 28,800 -1,379 Descending Washington Center
Tue 07:49:28 AM 36.5547 -79.8108 212° Southwest 399 459 26,300 -1,565 Descending Atlanta Center
Tue 07:50:28 AM 36.4633 -79.8825 214° Southwest 399 459 24,600 -1,850 Descending Atlanta Center
Tue 07:51:28 AM 36.3661 -79.9625 214° Southwest 399 459 22,600 -1,450 Descending Atlanta Center
Tue 07:52:28 AM 36.2767 -80.0364 214° Southwest 393 452 21,700 -1,350 Descending Atlanta Center
Tue 07:53:28 AM 36.1914 -80.1075 216° Southwest 387 445 19,900 -1,850 Descending Atlanta Center
Tue 07:54:28 AM 36.1122 -80.1783 214° Southwest 366 421 18,000 -1,850 Descending Atlanta Center
Tue 07:55:28 AM 36.0308 -80.2464 215° Southwest 366 421 16,200 -1,650 Descending Atlanta Center
Tue 07:56:28 AM 35.9619 -80.3061 217° Southwest 360 414 14,700 -1,451 Descending Atlanta Center
Tue 07:56:59 AM 35.9133 -80.3519 216° Southwest 343 395 14,000 -1,043 Descending Atlanta Center
Tue 07:58:00 AM 35.8361 -80.4219 212° Southwest 338 389 13,100 -689 Descending Atlanta Center
Tue 07:59:01 AM 35.7647 -80.4764 216° Southwest 302 348 12,600 -738 Descending Atlanta Center
Tue 08:00:02 AM 35.6994 -80.5356 186° South 294 338 11,600 -738 Descending Atlanta Center
Tue 08:01:03 AM 35.6206 -80.5464 158° South 273 314 11,100 -780 Descending Atlanta Center
Tue 08:02:05 AM 35.5592 -80.5158 205° Southwest 246 283 10,000 -1,172 Descending Atlanta Center
Tue 08:03:11 AM 35.5017 -80.5489 228° Southwest 214 246 8,600 -1,266 Descending Atlanta Center
Tue 08:04:13 AM 35.4617 -80.6042 227° Southwest 208 239 7,300 -1,023 Descending Atlanta Center
Tue 08:05:20 AM 35.4214 -80.6569 228° Southwest 194 223 6,400 -639 Descending Atlanta Center
Tue 08:06:15 AM 35.3931 -80.6961 233° Southwest 164 189 6,000 -724 Descending Atlanta Center
Tue 08:07:16 AM 35.3653 -80.7406 225° Southwest 166 191 5,000 -938 Descending Atlanta Center
Tue 08:08:23 AM 35.3289 -80.7853 229° Southwest 163 188 4,000 -885 Descending Atlanta Center
Tue 08:09:18 AM 35.3006 -80.8247 229° Southwest 162 186 3,200 -873 Descending Atlanta Center

Login

Don't have an account? Register now (free) for customized features, flight alerts, and more!